sensor_id;sensor_type;location;lat;lon;timestamp;pressure;altitude;pressure_sealevel;temperature;humidity
41686;BME280;27370;42.764;23.432;2022-08-01T00:00:12;95471.97;;;15.69;100.00
41686;BME280;27370;42.764;23.432;2022-08-01T00:02:39;95461.25;;;15.74;100.00
41686;BME280;27370;42.764;23.432;2022-08-01T00:05:07;95465.31;;;15.57;100.00
41686;BME280;27370;42.764;23.432;2022-08-01T00:07:34;95459.03;;;15.47;100.00
41686;BME280;27370;42.764;23.432;2022-08-01T00:10:00;95458.50;;;15.40;100.00
41686;BME280;27370;42.764;23.432;2022-08-01T00:12:25;95465.81;;;15.43;100.00
41686;BME280;27370;42.764;23.432;2022-08-01T00:14:51;95463.63;;;15.38;100.00
41686;BME280;27370;42.764;23.432;2022-08-01T00:17:16;95460.50;;;15.26;100.00
41686;BME280;27370;42.764;23.432;2022-08-01T00:19:42;95452.25;;;15.17;100.00
41686;BME280;27370;42.764;23.432;2022-08-01T00:22:07;95460.63;;;15.10;100.00
41686;BME280;27370;42.764;23.432;2022-08-01T00:24:33;95463.59;;;15.50;100.00
41686;BME280;27370;42.764;23.432;2022-08-01T00:26:58;95451.16;;;15.49;100.00
41686;BME280;27370;42.764;23.432;2022-08-01T00:29:24;95455.03;;;15.26;100.00
41686;BME280;27370;42.764;23.432;2022-08-01T00:31:49;95451.69;;;15.22;100.00
41686;BME280;27370;42.764;23.432;2022-08-01T00:34:15;95453.16;;;15.36;100.00
41686;BME280;27370;42.764;23.432;2022-08-01T00:36:40;95451.50;;;15.39;100.00
41686;BME280;27370;42.764;23.432;2022-08-01T00:39:06;95448.38;;;15.27;100.00
41686;BME280;27370;42.764;23.432;2022-08-01T00:41:31;95443.16;;;15.20;100.00
41686;BME280;27370;42.764;23.432;2022-08-01T00:43:57;95442.34;;;14.98;100.00
41686;BME280;27370;42.764;23.432;2022-08-01T00:46:22;95439.19;;;14.87;100.00
41686;BME280;27370;42.764;23.432;2022-08-01T00:48:48;95443.75;;;14.90;100.00
41686;BME280;27370;42.764;23.432;2022-08-01T00:51:14;95444.31;;;14.97;100.00
41686;BME280;27370;42.764;23.432;2022-08-01T00:53:40;95443.88;;;14.86;100.00
41686;BME280;27370;42.764;23.432;2022-08-01T00:56:06;95443.78;;;14.77;100.00
41686;BME280;27370;42.764;23.432;2022-08-01T00:58:33;95441.81;;;14.78;100.00
41686;BME280;27370;42.764;23.432;2022-08-01T01:00:59;95425.78;;;14.80;100.00
41686;BME280;27370;42.764;23.432;2022-08-01T01:03:25;95423.69;;;14.84;100.00
41686;BME280;27370;42.764;23.432;2022-08-01T01:06:01;95435.25;;;15.00;100.00
41686;BME280;27370;42.764;23.432;2022-08-01T01:08:32;95432.63;;;14.84;100.00
41686;BME280;27370;42.764;23.432;2022-08-01T01:11:12;95435.38;;;14.72;100.00
41686;BME280;27370;42.764;23.432;2022-08-01T01:14:04;95429.59;;;14.57;100.00
41686;BME280;27370;42.764;23.432;2022-08-01T01:16:30;95421.81;;;14.43;100.00
41686;BME280;27370;42.764;23.432;2022-08-01T01:19:00;95433.75;;;14.49;100.00
41686;BME280;27370;42.764;23.432;2022-08-01T01:24:39;95432.00;;;14.55;100.00
41686;BME280;27370;42.764;23.432;2022-08-01T01:27:29;95423.69;;;14.84;100.00
41686;BME280;27370;42.764;23.432;2022-08-01T01:29:56;95428.91;;;14.91;100.00
41686;BME280;27370;42.764;23.432;2022-08-01T01:32:29;95423.69;;;14.84;100.00
41686;BME280;27370;42.764;23.432;2022-08-01T01:35:00;95423.50;;;14.53;100.00
41686;BME280;27370;42.764;23.432;2022-08-01T01:37:29;95417.81;;;14.47;100.00
41686;BME280;27370;42.764;23.432;2022-08-01T01:39:55;95423.56;;;14.36;100.00
41686;BME280;27370;42.764;23.432;2022-08-01T01:42:22;95416.19;;;14.62;100.00
41686;BME280;27370;42.764;23.432;2022-08-01T01:44:51;95417.47;;;14.70;100.00
41686;BME280;27370;42.764;23.432;2022-08-01T01:47:17;95415.88;;;14.73;100.00
41686;BME280;27370;42.764;23.432;2022-08-01T01:49:45;95415.09;;;14.73;100.00
41686;BME280;27370;42.764;23.432;2022-08-01T01:52:13;95410.66;;;14.53;100.00
41686;BME280;27370;42.764;23.432;2022-08-01T01:54:42;95405.81;;;14.70;100.00
41686;BME280;27370;42.764;23.432;2022-08-01T01:57:11;95400.19;;;14.52;100.00
41686;BME280;27370;42.764;23.432;2022-08-01T01:59:38;95406.16;;;14.59;100.00
41686;BME280;27370;42.764;23.432;2022-08-01T02:02:05;95403.09;;;14.32;100.00
41686;BME280;27370;42.764;23.432;2022-08-01T02:04:32;95411.81;;;14.27;100.00
41686;BME280;27370;42.764;23.432;2022-08-01T02:07:01;95408.84;;;14.21;100.00
41686;BME280;27370;42.764;23.432;2022-08-01T02:09:29;95415.28;;;14.27;100.00
41686;BME280;27370;42.764;23.432;2022-08-01T02:11:57;95408.22;;;14.30;100.00
41686;BME280;27370;42.764;23.432;2022-08-01T02:14:24;95404.91;;;14.22;100.00
41686;BME280;27370;42.764;23.432;2022-08-01T02:16:54;95411.03;;;14.39;100.00
41686;BME280;27370;42.764;23.432;2022-08-01T02:19:23;95408.09;;;14.21;100.00
41686;BME280;27370;42.764;23.432;2022-08-01T02:22:02;95410.81;;;14.08;100.00
41686;BME280;27370;42.764;23.432;2022-08-01T02:27:14;95415.00;;;13.96;100.00
41686;BME280;27370;42.764;23.432;2022-08-01T02:29:45;95410.66;;;13.86;100.00
41686;BME280;27370;42.764;23.432;2022-08-01T02:32:19;95402.44;;;13.73;100.00
41686;BME280;27370;42.764;23.432;2022-08-01T02:34:46;95404.88;;;13.84;100.00
41686;BME280;27370;42.764;23.432;2022-08-01T02:37:15;95409.19;;;13.69;100.00
41686;BME280;27370;42.764;23.432;2022-08-01T02:39:43;95405.22;;;13.99;100.00
41686;BME280;27370;42.764;23.432;2022-08-01T02:42:12;95401.75;;;14.11;100.00
41686;BME280;27370;42.764;23.432;2022-08-01T02:44:41;95406.00;;;14.25;100.00
41686;BME280;27370;42.764;23.432;2022-08-01T02:47:08;95402.31;;;14.19;100.00
41686;BME280;27370;42.764;23.432;2022-08-01T02:49:39;95396.94;;;14.02;100.00
41686;BME280;27370;42.764;23.432;2022-08-01T02:52:08;95401.72;;;13.86;100.00
41686;BME280;27370;42.764;23.432;2022-08-01T02:54:36;95397.97;;;13.67;100.00
41686;BME280;27370;42.764;23.432;2022-08-01T02:57:03;95400.16;;;13.72;100.00
41686;BME280;27370;42.764;23.432;2022-08-01T02:59:31;95386.94;;;13.58;100.00
41686;BME280;27370;42.764;23.432;2022-08-01T03:02:00;95394.47;;;13.66;100.00
41686;BME280;27370;42.764;23.432;2022-08-01T03:04:27;95404.53;;;13.53;100.00
41686;BME280;27370;42.764;23.432;2022-08-01T03:06:54;95393.22;;;13.55;100.00
41686;BME280;27370;42.764;23.432;2022-08-01T03:09:25;95381.50;;;13.58;100.00
41686;BME280;27370;42.764;23.432;2022-08-01T03:11:52;95386.53;;;13.59;100.00
41686;BME280;27370;42.764;23.432;2022-08-01T03:14:20;95392.38;;;13.58;100.00
41686;BME280;27370;42.764;23.432;2022-08-01T03:16:46;95397.28;;;13.34;100.00
41686;BME280;27370;42.764;23.432;2022-08-01T03:19:15;95389.75;;;13.25;100.00
41686;BME280;27370;42.764;23.432;2022-08-01T03:21:44;95395.78;;;13.16;100.00
41686;BME280;27370;42.764;23.432;2022-08-01T03:24:10;95384.22;;;13.29;100.00
41686;BME280;27370;42.764;23.432;2022-08-01T03:26:38;95389.47;;;13.65;100.00
41686;BME280;27370;42.764;23.432;2022-08-01T03:29:06;95399.06;;;13.69;100.00
41686;BME280;27370;42.764;23.432;2022-08-01T03:31:36;95402.53;;;13.70;100.00
41686;BME280;27370;42.764;23.432;2022-08-01T03:34:02;95403.34;;;13.54;100.00
41686;BME280;27370;42.764;23.432;2022-08-01T03:36:29;95415.19;;;13.47;100.00
41686;BME280;27370;42.764;23.432;2022-08-01T03:38:59;95417.34;;;13.40;100.00
41686;BME280;27370;42.764;23.432;2022-08-01T03:41:29;95415.91;;;13.35;100.00
41686;BME280;27370;42.764;23.432;2022-08-01T03:44:05;95412.69;;;13.40;100.00
41686;BME280;27370;42.764;23.432;2022-08-01T03:47:17;95406.03;;;13.41;100.00
41686;BME280;27370;42.764;23.432;2022-08-01T03:49:32;95404.63;;;13.37;100.00
41686;BME280;27370;42.764;23.432;2022-08-01T03:52:00;95402.59;;;13.54;100.00
41686;BME280;27370;42.764;23.432;2022-08-01T03:54:30;95415.31;;;13.57;100.00
41686;BME280;27370;42.764;23.432;2022-08-01T03:57:00;95414.50;;;13.60;100.00
41686;BME280;27370;42.764;23.432;2022-08-01T03:59:26;95416.47;;;13.72;100.00
41686;BME280;27370;42.764;23.432;2022-08-01T04:01:52;95412.34;;;13.80;100.00
41686;BME280;27370;42.764;23.432;2022-08-01T04:04:20;95413.16;;;13.93;100.00
41686;BME280;27370;42.764;23.432;2022-08-01T04:06:45;95413.97;;;14.06;100.00
41686;BME280;27370;42.764;23.432;2022-08-01T04:09:11;95409.59;;;14.22;100.00
41686;BME280;27370;42.764;23.432;2022-08-01T04:11:37;95411.59;;;14.34;100.00
41686;BME280;27370;42.764;23.432;2022-08-01T04:14:03;95410.53;;;14.44;100.00
41686;BME280;27370;42.764;23.432;2022-08-01T04:16:29;95413.59;;;14.59;100.00
41686;BME280;27370;42.764;23.432;2022-08-01T04:18:54;95419.56;;;14.79;100.00
41686;BME280;27370;42.764;23.432;2022-08-01T04:21:25;95418.44;;;15.02;100.00
41686;BME280;27370;42.764;23.432;2022-08-01T04:23:56;95407.28;;;15.22;100.00
41686;BME280;27370;42.764;23.432;2022-08-01T04:26:24;95422.03;;;15.46;100.00
41686;BME280;27370;42.764;23.432;2022-08-01T04:28:52;95426.91;;;15.64;100.00
41686;BME280;27370;42.764;23.432;2022-08-01T04:31:20;95418.38;;;15.84;100.00
41686;BME280;27370;42.764;23.432;2022-08-01T04:33:48;95416.09;;;16.04;100.00
41686;BME280;27370;42.764;23.432;2022-08-01T04:36:17;95409.34;;;16.18;100.00
41686;BME280;27370;42.764;23.432;2022-08-01T04:38:45;95411.88;;;16.34;100.00
41686;BME280;27370;42.764;23.432;2022-08-01T04:41:12;95415.63;;;16.59;100.00
41686;BME280;27370;42.764;23.432;2022-08-01T04:43:39;95415.16;;;16.60;100.00
41686;BME280;27370;42.764;23.432;2022-08-01T04:46:06;95427.88;;;16.85;100.00
41686;BME280;27370;42.764;23.432;2022-08-01T04:48:34;95432.66;;;17.03;100.00
41686;BME280;27370;42.764;23.432;2022-08-01T04:51:01;95434.94;;;17.13;100.00
41686;BME280;27370;42.764;23.432;2022-08-01T04:53:26;95425.84;;;17.26;100.00
41686;BME280;27370;42.764;23.432;2022-08-01T04:55:53;95414.59;;;17.42;100.00
41686;BME280;27370;42.764;23.432;2022-08-01T04:58:18;95421.91;;;17.63;100.00
41686;BME280;27370;42.764;23.432;2022-08-01T05:00:45;95424.38;;;17.80;100.00
41686;BME280;27370;42.764;23.432;2022-08-01T05:03:10;95423.16;;;17.90;100.00
41686;BME280;27370;42.764;23.432;2022-08-01T05:05:36;95421.63;;;17.98;100.00
41686;BME280;27370;42.764;23.432;2022-08-01T05:08:04;95419.16;;;18.09;100.00
41686;BME280;27370;42.764;23.432;2022-08-01T05:10:31;95415.66;;;18.18;100.00
41686;BME280;27370;42.764;23.432;2022-08-01T05:12:57;95414.88;;;18.26;100.00
41686;BME280;27370;42.764;23.432;2022-08-01T05:15:22;95409.03;;;18.43;100.00
41686;BME280;27370;42.764;23.432;2022-08-01T05:17:48;95416.63;;;18.57;100.00
41686;BME280;27370;42.764;23.432;2022-08-01T05:20:13;95413.69;;;18.60;100.00
41686;BME280;27370;42.764;23.432;2022-08-01T05:22:39;95418.72;;;18.62;100.00
41686;BME280;27370;42.764;23.432;2022-08-01T05:25:05;95417.91;;;18.80;100.00
41686;BME280;27370;42.764;23.432;2022-08-01T05:27:31;95416.09;;;19.01;100.00
41686;BME280;27370;42.764;23.432;2022-08-01T05:29:57;95412.31;;;18.98;100.00
41686;BME280;27370;42.764;23.432;2022-08-01T05:32:22;95414.66;;;19.14;100.00
41686;BME280;27370;42.764;23.432;2022-08-01T05:34:48;95416.72;;;19.05;100.00
41686;BME280;27370;42.764;23.432;2022-08-01T05:37:13;95419.41;;;19.14;100.00
41686;BME280;27370;42.764;23.432;2022-08-01T05:39:39;95411.41;;;19.01;100.00
41686;BME280;27370;42.764;23.432;2022-08-01T05:42:05;95413.25;;;18.95;100.00
41686;BME280;27370;42.764;23.432;2022-08-01T05:44:31;95424.88;;;19.14;100.00
41686;BME280;27370;42.764;23.432;2022-08-01T05:46:56;95420.41;;;19.25;100.00
41686;BME280;27370;42.764;23.432;2022-08-01T05:49:22;95428.69;;;19.40;100.00
41686;BME280;27370;42.764;23.432;2022-08-01T05:51:47;95417.78;;;19.31;100.00
41686;BME280;27370;42.764;23.432;2022-08-01T05:54:13;95416.44;;;19.26;100.00
41686;BME280;27370;42.764;23.432;2022-08-01T05:56:38;95419.88;;;19.36;100.00
41686;BME280;27370;42.764;23.432;2022-08-01T05:59:04;95410.22;;;19.41;100.00
41686;BME280;27370;42.764;23.432;2022-08-01T06:01:29;95413.44;;;19.63;100.00
41686;BME280;27370;42.764;23.432;2022-08-01T06:03:55;95413.38;;;19.87;100.00
41686;BME280;27370;42.764;23.432;2022-08-01T06:06:21;95410.41;;;20.14;100.00
41686;BME280;27370;42.764;23.432;2022-08-01T06:08:47;95413.13;;;20.29;100.00
41686;BME280;27370;42.764;23.432;2022-08-01T06:11:12;95416.28;;;20.37;99.58
41686;BME280;27370;42.764;23.432;2022-08-01T06:13:38;95406.59;;;20.27;100.00
41686;BME280;27370;42.764;23.432;2022-08-01T06:16:04;95412.75;;;20.36;100.00
41686;BME280;27370;42.764;23.432;2022-08-01T06:18:29;95403.69;;;20.45;100.00
41686;BME280;27370;42.764;23.432;2022-08-01T06:20:55;95405.34;;;20.57;100.00
41686;BME280;27370;42.764;23.432;2022-08-01T06:23:21;95400.72;;;20.63;99.24
41686;BME280;27370;42.764;23.432;2022-08-01T06:25:46;95398.03;;;20.69;99.22
41686;BME280;27370;42.764;23.432;2022-08-01T06:28:12;95397.06;;;20.87;99.48
41686;BME280;27370;42.764;23.432;2022-08-01T06:30:38;95395.56;;;20.86;96.82
41686;BME280;27370;42.764;23.432;2022-08-01T06:33:03;95400.16;;;20.94;91.09
41686;BME280;27370;42.764;23.432;2022-08-01T06:35:29;95400.22;;;21.00;93.98
41686;BME280;27370;42.764;23.432;2022-08-01T06:37:56;95401.72;;;21.16;96.06
41686;BME280;27370;42.764;23.432;2022-08-01T06:40:22;95403.63;;;21.09;91.79
41686;BME280;27370;42.764;23.432;2022-08-01T06:42:47;95395.88;;;21.08;91.29
41686;BME280;27370;42.764;23.432;2022-08-01T06:45:14;95390.19;;;21.32;90.58
41686;BME280;27370;42.764;23.432;2022-08-01T06:47:40;95394.03;;;21.40;94.65
41686;BME280;27370;42.764;23.432;2022-08-01T06:50:07;95389.28;;;21.61;94.99
41686;BME280;27370;42.764;23.432;2022-08-01T06:52:33;95388.16;;;21.73;86.00
41686;BME280;27370;42.764;23.432;2022-08-01T06:54:59;95387.78;;;21.86;83.89
41686;BME280;27370;42.764;23.432;2022-08-01T06:57:25;95384.72;;;21.58;84.96
41686;BME280;27370;42.764;23.432;2022-08-01T06:59:50;95388.63;;;21.71;85.73
41686;BME280;27370;42.764;23.432;2022-08-01T07:02:16;95379.75;;;22.08;82.98
41686;BME280;27370;42.764;23.432;2022-08-01T07:04:41;95379.34;;;22.47;78.40
41686;BME280;27370;42.764;23.432;2022-08-01T07:07:07;95373.47;;;22.65;79.96
41686;BME280;27370;42.764;23.432;2022-08-01T07:09:33;95376.78;;;22.75;79.76
41686;BME280;27370;42.764;23.432;2022-08-01T07:11:59;95374.28;;;22.77;76.32
41686;BME280;27370;42.764;23.432;2022-08-01T07:14:24;95374.19;;;22.97;80.45
41686;BME280;27370;42.764;23.432;2022-08-01T07:16:50;95370.50;;;23.11;74.16
41686;BME280;27370;42.764;23.432;2022-08-01T07:19:16;95371.78;;;23.16;73.86
41686;BME280;27370;42.764;23.432;2022-08-01T07:21:42;95369.53;;;23.14;76.17
41686;BME280;27370;42.764;23.432;2022-08-01T07:24:10;95370.03;;;23.13;76.70
41686;BME280;27370;42.764;23.432;2022-08-01T07:26:35;95368.72;;;23.08;74.86
41686;BME280;27370;42.764;23.432;2022-08-01T07:29:01;95367.97;;;23.08;76.10
41686;BME280;27370;42.764;23.432;2022-08-01T07:31:28;95356.97;;;23.19;73.65
41686;BME280;27370;42.764;23.432;2022-08-01T07:33:54;95363.00;;;23.17;77.19
41686;BME280;27370;42.764;23.432;2022-08-01T07:36:19;95367.31;;;23.30;75.04
41686;BME280;27370;42.764;23.432;2022-08-01T07:38:45;95355.72;;;23.14;75.08
41686;BME280;27370;42.764;23.432;2022-08-01T07:41:11;95348.19;;;23.20;75.73
41686;BME280;27370;42.764;23.432;2022-08-01T07:43:37;95353.50;;;23.30;76.33
41686;BME280;27370;42.764;23.432;2022-08-01T07:46:03;95347.22;;;23.29;69.44
41686;BME280;27370;42.764;23.432;2022-08-01T07:48:28;95355.28;;;23.33;72.14
41686;BME280;27370;42.764;23.432;2022-08-01T07:50:54;95349.28;;;23.40;69.25
41686;BME280;27370;42.764;23.432;2022-08-01T07:53:20;95359.59;;;23.39;70.39
41686;BME280;27370;42.764;23.432;2022-08-01T07:55:45;95343.50;;;23.43;71.19
41686;BME280;27370;42.764;23.432;2022-08-01T07:58:11;95364.97;;;23.60;66.84
41686;BME280;27370;42.764;23.432;2022-08-01T08:00:37;95349.41;;;23.73;67.01
41686;BME280;27370;42.764;23.432;2022-08-01T08:03:03;95348.94;;;23.92;64.03
41686;BME280;27370;42.764;23.432;2022-08-01T08:05:28;95355.72;;;23.85;66.89
41686;BME280;27370;42.764;23.432;2022-08-01T08:07:54;95349.97;;;24.00;65.86
41686;BME280;27370;42.764;23.432;2022-08-01T08:10:20;95351.75;;;24.25;59.85
41686;BME280;27370;42.764;23.432;2022-08-01T08:12:45;95349.75;;;24.37;61.18
41686;BME280;27370;42.764;23.432;2022-08-01T08:15:12;95358.81;;;24.43;59.21
41686;BME280;27370;42.764;23.432;2022-08-01T08:17:38;95351.78;;;24.31;61.67
41686;BME280;27370;42.764;23.432;2022-08-01T08:20:06;95346.72;;;24.40;60.75
41686;BME280;27370;42.764;23.432;2022-08-01T08:22:32;95344.75;;;24.47;58.39
41686;BME280;27370;42.764;23.432;2022-08-01T08:24:57;95340.69;;;24.36;57.22
41686;BME280;27370;42.764;23.432;2022-08-01T08:27:23;95339.19;;;24.35;60.72
41686;BME280;27370;42.764;23.432;2022-08-01T08:29:48;95347.25;;;24.56;56.96
41686;BME280;27370;42.764;23.432;2022-08-01T08:32:14;95354.78;;;24.72;56.67
41686;BME280;27370;42.764;23.432;2022-08-01T08:34:39;95348.69;;;24.85;56.73
41686;BME280;27370;42.764;23.432;2022-08-01T08:37:05;95346.22;;;24.70;56.57
41686;BME280;27370;42.764;23.432;2022-08-01T08:39:31;95346.69;;;24.96;55.09
41686;BME280;27370;42.764;23.432;2022-08-01T08:41:59;95338.88;;;24.84;59.02
41686;BME280;27370;42.764;23.432;2022-08-01T08:44:25;95340.66;;;24.76;58.24
41686;BME280;27370;42.764;23.432;2022-08-01T08:46:51;95337.41;;;24.77;55.30
41686;BME280;27370;42.764;23.432;2022-08-01T08:49:22;95338.13;;;24.89;56.55
41686;BME280;27370;42.764;23.432;2022-08-01T08:51:49;95335.88;;;24.76;57.78
41686;BME280;27370;42.764;23.432;2022-08-01T08:54:17;95333.31;;;25.06;58.81
41686;BME280;27370;42.764;23.432;2022-08-01T08:56:43;95335.09;;;24.98;56.62
41686;BME280;27370;42.764;23.432;2022-08-01T08:59:12;95336.84;;;25.07;57.56
41686;BME280;27370;42.764;23.432;2022-08-01T09:01:38;95324.75;;;25.15;58.16
41686;BME280;27370;42.764;23.432;2022-08-01T09:04:04;95327.75;;;25.12;56.28
41686;BME280;27370;42.764;23.432;2022-08-01T09:06:33;95320.47;;;25.09;55.89
41686;BME280;27370;42.764;23.432;2022-08-01T09:08:59;95318.69;;;25.17;57.19
41686;BME280;27370;42.764;23.432;2022-08-01T09:11:24;95318.13;;;25.29;56.36
41686;BME280;27370;42.764;23.432;2022-08-01T09:16:41;95310.75;;;25.43;53.25
41686;BME280;27370;42.764;23.432;2022-08-01T09:19:12;95301.72;;;25.31;55.23
41686;BME280;27370;42.764;23.432;2022-08-01T09:21:39;95311.22;;;25.47;55.29
41686;BME280;27370;42.764;23.432;2022-08-01T09:24:13;95304.09;;;25.63;58.58
41686;BME280;27370;42.764;23.432;2022-08-01T09:26:39;95320.41;;;25.83;56.37
41686;BME280;27370;42.764;23.432;2022-08-01T09:29:06;95305.97;;;25.90;54.18
41686;BME280;27370;42.764;23.432;2022-08-01T09:31:40;95305.97;;;25.90;55.53
41686;BME280;27370;42.764;23.432;2022-08-01T09:34:06;95307.19;;;25.95;51.58
41686;BME280;27370;42.764;23.432;2022-08-01T09:36:47;95299.63;;;25.49;50.35
41686;BME280;27370;42.764;23.432;2022-08-01T09:39:20;95307.63;;;25.06;52.82
41686;BME280;27370;42.764;23.432;2022-08-01T09:41:47;95304.59;;;25.09;54.35
41686;BME280;27370;42.764;23.432;2022-08-01T09:44:14;95305.22;;;25.43;52.52
41686;BME280;27370;42.764;23.432;2022-08-01T09:46:49;95304.81;;;25.22;51.29
41686;BME280;27370;42.764;23.432;2022-08-01T09:49:27;95306.84;;;25.11;52.97
41686;BME280;27370;42.764;23.432;2022-08-01T09:51:52;95304.69;;;25.45;53.57
41686;BME280;27370;42.764;23.432;2022-08-01T09:54:31;95309.13;;;25.64;53.57
41686;BME280;27370;42.764;23.432;2022-08-01T09:57:08;95314.63;;;25.81;55.70
41686;BME280;27370;42.764;23.432;2022-08-01T09:59:36;95307.66;;;25.99;50.35
41686;BME280;27370;42.764;23.432;2022-08-01T10:02:03;95310.53;;;25.88;51.84
41686;BME280;27370;42.764;23.432;2022-08-01T10:04:28;95312.50;;;25.93;50.12
41686;BME280;27370;42.764;23.432;2022-08-01T10:07:04;95308.03;;;25.79;49.57
41686;BME280;27370;42.764;23.432;2022-08-01T10:09:31;95315.38;;;25.24;51.86
41686;BME280;27370;42.764;23.432;2022-08-01T10:11:59;95311.03;;;25.40;50.32
41686;BME280;27370;42.764;23.432;2022-08-01T10:14:26;95297.38;;;25.47;51.45
41686;BME280;27370;42.764;23.432;2022-08-01T10:16:57;95299.72;;;25.84;51.08
41686;BME280;27370;42.764;23.432;2022-08-01T10:19:26;95292.00;;;26.02;49.44
41686;BME280;27370;42.764;23.432;2022-08-01T10:21:54;95293.09;;;26.23;50.85
41686;BME280;27370;42.764;23.432;2022-08-01T10:24:21;95298.16;;;26.54;52.08
41686;BME280;27370;42.764;23.432;2022-08-01T10:26:48;95291.56;;;26.58;48.60
41686;BME280;27370;42.764;23.432;2022-08-01T10:29:16;95280.16;;;26.85;49.71
41686;BME280;27370;42.764;23.432;2022-08-01T10:31:44;95280.09;;;26.91;51.05
41686;BME280;27370;42.764;23.432;2022-08-01T10:34:11;95274.09;;;26.63;47.39
41686;BME280;27370;42.764;23.432;2022-08-01T10:36:41;95281.19;;;26.82;48.62
41686;BME280;27370;42.764;23.432;2022-08-01T10:39:10;95273.41;;;27.24;49.56
41686;BME280;27370;42.764;23.432;2022-08-01T10:41:36;95280.97;;;27.05;50.03
41686;BME280;27370;42.764;23.432;2022-08-01T10:44:03;95274.25;;;27.19;50.05
41686;BME280;27370;42.764;23.432;2022-08-01T10:46:30;95274.47;;;27.21;49.32
41686;BME280;27370;42.764;23.432;2022-08-01T10:49:03;95266.19;;;26.91;47.55
41686;BME280;27370;42.764;23.432;2022-08-01T10:51:30;95272.16;;;27.25;48.35
41686;BME280;27370;42.764;23.432;2022-08-01T10:53:56;95281.91;;;27.32;48.35
41686;BME280;27370;42.764;23.432;2022-08-01T10:56:23;95271.31;;;27.30;46.32
41686;BME280;27370;42.764;23.432;2022-08-01T10:58:51;95271.63;;;27.45;51.11
41686;BME280;27370;42.764;23.432;2022-08-01T11:01:27;95264.88;;;27.41;48.16
41686;BME280;27370;42.764;23.432;2022-08-01T11:08:54;95267.41;;;27.58;49.14
41686;BME280;27370;42.764;23.432;2022-08-01T11:11:21;95268.13;;;27.64;47.58
41686;BME280;27370;42.764;23.432;2022-08-01T11:16:29;95271.25;;;27.73;45.86
41686;BME280;27370;42.764;23.432;2022-08-01T11:18:55;95264.94;;;27.54;45.49
41686;BME280;27370;42.764;23.432;2022-08-01T11:21:21;95267.72;;;27.17;48.04
41686;BME280;27370;42.764;23.432;2022-08-01T11:23:50;95263.72;;;27.31;48.53
41686;BME280;27370;42.764;23.432;2022-08-01T11:26:19;95260.00;;;27.66;51.41
41686;BME280;27370;42.764;23.432;2022-08-01T11:28:48;95262.44;;;27.88;45.68
41686;BME280;27370;42.764;23.432;2022-08-01T11:31:32;95250.88;;;27.84;47.25
41686;BME280;27370;42.764;23.432;2022-08-01T11:33:58;95245.22;;;27.90;44.89
41686;BME280;27370;42.764;23.432;2022-08-01T11:36:24;95248.75;;;27.90;48.27
41686;BME280;27370;42.764;23.432;2022-08-01T11:39:13;95243.13;;;27.77;46.10
41686;BME280;27370;42.764;23.432;2022-08-01T11:41:40;95249.41;;;27.96;45.70
41686;BME280;27370;42.764;23.432;2022-08-01T11:44:19;95244.75;;;28.18;42.42
41686;BME280;27370;42.764;23.432;2022-08-01T11:49:30;95244.38;;;28.27;43.38
41686;BME280;27370;42.764;23.432;2022-08-01T11:54:28;95247.81;;;28.33;44.51
41686;BME280;27370;42.764;23.432;2022-08-01T11:56:58;95248.50;;;28.52;45.06
41686;BME280;27370;42.764;23.432;2022-08-01T11:59:25;95245.59;;;28.58;43.99
41686;BME280;27370;42.764;23.432;2022-08-01T12:01:51;95249.56;;;28.17;42.88
41686;BME280;27370;42.764;23.432;2022-08-01T12:04:16;95248.53;;;27.88;42.39
41686;BME280;27370;42.764;23.432;2022-08-01T12:06:42;95244.41;;;27.76;45.25
41686;BME280;27370;42.764;23.432;2022-08-01T12:09:19;95245.47;;;27.73;44.53
41686;BME280;27370;42.764;23.432;2022-08-01T12:11:45;95259.19;;;27.09;46.25
41686;BME280;27370;42.764;23.432;2022-08-01T12:14:20;95250.28;;;26.92;46.30
41686;BME280;27370;42.764;23.432;2022-08-01T12:16:53;95246.88;;;26.80;47.15
41686;BME280;27370;42.764;23.432;2022-08-01T12:19:23;95247.66;;;27.24;46.51
41686;BME280;27370;42.764;23.432;2022-08-01T12:22:05;95248.25;;;27.35;46.42
41686;BME280;27370;42.764;23.432;2022-08-01T12:24:35;95247.88;;;27.26;47.08
41686;BME280;27370;42.764;23.432;2022-08-01T12:27:02;95242.16;;;27.18;47.17
41686;BME280;27370;42.764;23.432;2022-08-01T12:29:39;95243.44;;;27.17;51.02
41686;BME280;27370;42.764;23.432;2022-08-01T12:32:32;95243.72;;;27.51;48.17
41686;BME280;27370;42.764;23.432;2022-08-01T12:35:08;95240.97;;;27.32;47.07
41686;BME280;27370;42.764;23.432;2022-08-01T12:37:39;95253.97;;;27.24;48.51
41686;BME280;27370;42.764;23.432;2022-08-01T12:40:17;95237.63;;;27.15;49.28
41686;BME280;27370;42.764;23.432;2022-08-01T12:42:46;95241.78;;;27.08;45.66
41686;BME280;27370;42.764;23.432;2022-08-01T12:45:15;95239.41;;;26.94;45.17
41686;BME280;27370;42.764;23.432;2022-08-01T12:47:41;95242.53;;;26.84;48.44
41686;BME280;27370;42.764;23.432;2022-08-01T12:50:14;95235.84;;;26.74;49.67
41686;BME280;27370;42.764;23.432;2022-08-01T12:52:41;95239.31;;;26.56;49.17
41686;BME280;27370;42.764;23.432;2022-08-01T12:55:21;95239.38;;;26.20;48.89
41686;BME280;27370;42.764;23.432;2022-08-01T12:57:48;95240.09;;;25.97;48.25
41686;BME280;27370;42.764;23.432;2022-08-01T13:00:23;95237.53;;;25.99;48.45
41686;BME280;27370;42.764;23.432;2022-08-01T13:02:59;95238.16;;;26.16;50.56
41686;BME280;27370;42.764;23.432;2022-08-01T13:05:26;95236.00;;;26.03;48.82
41686;BME280;27370;42.764;23.432;2022-08-01T13:07:52;95234.47;;;26.02;52.10
41686;BME280;27370;42.764;23.432;2022-08-01T13:10:29;95239.84;;;26.54;50.41